createdAt,value
2022-10-31T00:01:26.018Z,19.70
2022-10-31T00:03:54.757Z,19.90
2022-10-31T00:06:23.117Z,19.10
2022-10-31T00:08:56.271Z,20.40
2022-10-31T00:11:24.341Z,16.50
2022-10-31T00:13:52.116Z,14.00
2022-10-31T00:16:22.619Z,13.40
2022-10-31T00:18:54.903Z,12.10
2022-10-31T00:21:22.786Z,13.40
2022-10-31T00:23:51.045Z,13.10
2022-10-31T00:26:19.198Z,20.00
2022-10-31T00:28:47.177Z,35.40
2022-10-31T00:31:15.631Z,94.60
2022-10-31T00:33:43.616Z,75.10
2022-10-31T00:36:17.491Z,57.60
2022-10-31T00:38:46.115Z,26.20
2022-10-31T00:41:16.334Z,21.20
2022-10-31T00:43:44.706Z,20.50
2022-10-31T00:46:13.643Z,24.70
2022-10-31T00:48:41.400Z,30.50
2022-10-31T00:51:09.650Z,32.50
2022-10-31T00:53:37.284Z,30.70
2022-10-31T00:56:05.278Z,26.30
2022-10-31T00:58:32.751Z,19.60
2022-10-31T01:01:00.283Z,19.20
2022-10-31T01:03:32.071Z,18.10
2022-10-31T01:06:01.019Z,18.50
2022-10-31T01:08:29.237Z,20.20
2022-10-31T01:11:21.354Z,18.50
2022-10-31T01:13:52.461Z,16.80
2022-10-31T01:16:24.438Z,18.10
2022-10-31T01:18:52.153Z,19.10
2022-10-31T01:21:25.097Z,18.00
2022-10-31T01:23:55.286Z,15.50
2022-10-31T01:26:25.772Z,15.10
2022-10-31T01:28:55.535Z,15.60
2022-10-31T01:31:26.392Z,15.00
2022-10-31T01:33:54.955Z,14.00
2022-10-31T01:36:27.770Z,15.00
2022-10-31T01:38:58.672Z,12.50
2022-10-31T01:41:32.490Z,12.70
2022-10-31T01:44:03.304Z,11.80
2022-10-31T01:46:37.743Z,11.90
2022-10-31T01:49:10.499Z,12.20
2022-10-31T01:51:42.151Z,11.80
2022-10-31T01:54:13.820Z,12.50
2022-10-31T01:56:44.680Z,11.20
2022-10-31T01:59:14.862Z,11.60
2022-10-31T02:01:42.463Z,13.20
2022-10-31T02:04:10.493Z,11.40
2022-10-31T02:07:03.655Z,10.30
2022-10-31T02:09:32.823Z,8.40
2022-10-31T02:12:00.711Z,9.00
2022-10-31T02:14:31.648Z,9.30
2022-10-31T02:16:59.136Z,17.30
2022-10-31T02:19:58.621Z,14.00
2022-10-31T02:22:41.063Z,23.90
2022-10-31T02:25:42.482Z,18.30
2022-10-31T02:28:30.403Z,25.30
2022-10-31T02:31:23.274Z,15.70
2022-10-31T02:33:59.948Z,14.20
2022-10-31T02:36:44.719Z,13.90
2022-10-31T02:39:17.893Z,17.20
2022-10-31T02:42:07.455Z,15.30
2022-10-31T02:44:46.394Z,13.70
2022-10-31T02:47:17.532Z,12.70
2022-10-31T02:50:06.940Z,11.70
2022-10-31T02:52:35.949Z,11.20
2022-10-31T02:55:34.407Z,9.10
2022-10-31T02:58:24.081Z,8.50
2022-10-31T03:01:06.685Z,8.20
2022-10-31T03:04:02.058Z,7.60
2022-10-31T03:06:50.318Z,8.10
2022-10-31T03:09:26.579Z,8.50
2022-10-31T03:12:23.626Z,9.50
2022-10-31T03:15:05.107Z,9.60
2022-10-31T03:17:41.975Z,10.30
2022-10-31T03:20:11.404Z,11.50
2022-10-31T03:22:41.740Z,13.10
2022-10-31T03:25:10.714Z,14.40
2022-10-31T03:27:42.242Z,13.80
2022-10-31T03:30:10.815Z,14.30
2022-10-31T03:32:57.529Z,14.00
2022-10-31T03:35:28.391Z,14.20
2022-10-31T03:37:57.292Z,16.00
2022-10-31T03:40:28.126Z,18.30
2022-10-31T03:43:01.947Z,15.70
2022-10-31T03:45:31.918Z,14.90
2022-10-31T03:48:00.774Z,15.90
2022-10-31T03:50:38.897Z,11.70
2022-10-31T03:53:24.579Z,8.70
2022-10-31T03:55:59.305Z,9.00
2022-10-31T03:58:39.186Z,10.10
2022-10-31T04:01:14.866Z,8.90
2022-10-31T04:03:44.202Z,11.40
2022-10-31T04:06:14.756Z,10.90
2022-10-31T04:08:48.128Z,12.40
2022-10-31T04:11:19.159Z,11.80
2022-10-31T04:13:48.866Z,12.20
2022-10-31T04:16:17.793Z,12.40
2022-10-31T04:18:45.356Z,12.00
2022-10-31T04:21:12.805Z,13.30
2022-10-31T04:23:40.306Z,13.10
2022-10-31T04:26:11.266Z,10.80
2022-10-31T04:28:38.812Z,11.50
2022-10-31T04:31:06.623Z,10.00
2022-10-31T04:33:34.080Z,10.40
2022-10-31T04:36:01.555Z,9.50
2022-10-31T04:38:29.054Z,10.20
2022-10-31T04:40:56.550Z,10.00
2022-10-31T04:43:24.046Z,10.70
2022-10-31T04:45:51.523Z,10.10
2022-10-31T04:48:18.999Z,9.30
2022-10-31T04:50:46.453Z,10.30
2022-10-31T04:53:14.221Z,9.40
2022-10-31T04:55:41.665Z,9.20
2022-10-31T04:58:09.262Z,9.70
2022-10-31T05:00:36.800Z,8.50
2022-10-31T05:03:04.403Z,8.40
2022-10-31T05:05:32.400Z,8.90
2022-10-31T05:07:59.994Z,9.20
2022-10-31T05:10:30.200Z,9.20
2022-10-31T05:13:00.376Z,10.10
2022-10-31T05:15:28.920Z,14.60
2022-10-31T05:17:57.651Z,10.80
2022-10-31T05:20:28.591Z,10.90
2022-10-31T05:22:58.202Z,10.80
2022-10-31T05:25:27.912Z,15.60
2022-10-31T05:27:56.968Z,11.40
2022-10-31T05:30:30.502Z,11.20
2022-10-31T05:32:59.100Z,13.20
2022-10-31T05:35:32.611Z,15.20
2022-10-31T05:38:00.758Z,12.10
2022-10-31T05:40:28.830Z,11.30
2022-10-31T05:42:59.717Z,13.20
2022-10-31T05:45:27.599Z,13.90
2022-10-31T05:48:00.850Z,11.60
2022-10-31T05:50:30.771Z,11.10
2022-10-31T05:53:01.451Z,13.30
2022-10-31T05:55:30.189Z,10.60
2022-10-31T05:57:58.698Z,9.70
2022-10-31T06:00:27.018Z,9.90
2022-10-31T06:03:06.317Z,10.00
2022-10-31T06:05:34.089Z,10.30
2022-10-31T06:08:02.028Z,14.20
2022-10-31T06:10:29.922Z,20.00
2022-10-31T06:12:57.545Z,14.00
2022-10-31T06:15:25.441Z,10.80
2022-10-31T06:18:01.287Z,12.10
2022-10-31T06:20:29.011Z,14.70
2022-10-31T06:22:56.544Z,11.50
2022-10-31T06:25:24.696Z,10.60
2022-10-31T06:27:52.202Z,9.40
2022-10-31T06:30:19.709Z,10.20
2022-10-31T06:32:47.249Z,10.10
2022-10-31T06:35:15.098Z,8.80
2022-10-31T06:37:44.421Z,9.40
2022-10-31T06:40:14.370Z,9.80
2022-10-31T06:42:41.822Z,9.40
2022-10-31T06:45:09.313Z,9.20
2022-10-31T06:47:50.835Z,11.70
2022-10-31T06:50:24.823Z,8.50
2022-10-31T06:52:54.163Z,14.50
2022-10-31T06:55:23.578Z,15.90
2022-10-31T06:58:02.055Z,9.50
2022-10-31T07:00:31.987Z,8.20
2022-10-31T07:03:05.455Z,8.80
2022-10-31T07:05:33.236Z,8.20
2022-10-31T07:08:03.850Z,9.50
2022-10-31T07:10:37.254Z,8.50
2022-10-31T07:13:12.963Z,9.40
2022-10-31T07:15:42.124Z,8.90
2022-10-31T07:18:11.891Z,10.00
2022-10-31T07:20:39.478Z,10.70
2022-10-31T07:23:07.192Z,8.20
2022-10-31T07:25:34.797Z,8.70
2022-10-31T07:28:02.608Z,8.00
2022-10-31T07:30:30.419Z,8.60
2022-10-31T07:32:58.469Z,10.50
2022-10-31T07:35:28.206Z,11.50
2022-10-31T07:37:56.216Z,9.00
2022-10-31T07:40:25.233Z,8.50
2022-10-31T07:42:53.754Z,8.40
2022-10-31T07:45:22.125Z,8.20
2022-10-31T07:47:51.759Z,7.80
2022-10-31T07:50:25.299Z,7.50
2022-10-31T07:53:00.922Z,8.20
2022-10-31T07:55:28.973Z,8.30
2022-10-31T07:58:04.994Z,8.00
2022-10-31T08:00:34.841Z,7.40
2022-10-31T08:03:08.092Z,8.70
2022-10-31T08:05:36.456Z,7.90
2022-10-31T08:08:05.291Z,8.30
2022-10-31T08:10:33.356Z,8.30
2022-10-31T08:13:06.124Z,10.80
2022-10-31T08:15:35.232Z,8.30
2022-10-31T08:18:03.484Z,8.40
2022-10-31T08:20:31.258Z,9.20
2022-10-31T08:23:03.942Z,8.20
2022-10-31T08:25:37.301Z,8.70
2022-10-31T08:28:08.122Z,8.30
2022-10-31T08:30:37.380Z,9.20
2022-10-31T08:33:12.877Z,9.10
2022-10-31T08:35:40.926Z,8.70
2022-10-31T08:38:10.746Z,7.80
2022-10-31T08:40:38.768Z,8.50
2022-10-31T08:43:11.377Z,7.40
2022-10-31T08:45:38.996Z,8.10
2022-10-31T08:48:12.425Z,7.30
2022-10-31T08:50:40.092Z,7.60
2022-10-31T08:53:11.574Z,8.70
2022-10-31T08:55:42.013Z,8.90
2022-10-31T08:58:15.471Z,9.00
2022-10-31T09:00:44.461Z,9.70
2022-10-31T09:03:14.846Z,9.10
2022-10-31T09:05:42.930Z,9.60
2022-10-31T09:08:16.058Z,9.70
2022-10-31T09:10:46.291Z,9.90
2022-10-31T09:13:20.508Z,9.80
2022-10-31T09:15:50.458Z,10.60
2022-10-31T09:18:20.347Z,10.60
2022-10-31T09:20:49.446Z,12.00
2022-10-31T09:23:19.851Z,11.10
2022-10-31T09:25:50.623Z,11.60
2022-10-31T09:28:22.376Z,11.70
2022-10-31T09:30:52.490Z,12.20
2022-10-31T09:33:20.994Z,11.50
2022-10-31T09:35:48.749Z,11.80
2022-10-31T09:38:20.193Z,11.50
2022-10-31T09:40:53.349Z,13.70
2022-10-31T09:43:30.011Z,12.70
2022-10-31T09:46:09.302Z,13.50
2022-10-31T09:48:58.103Z,13.90
2022-10-31T09:52:01.852Z,14.90
2022-10-31T09:54:53.115Z,12.80
2022-10-31T09:57:28.770Z,14.20
2022-10-31T09:59:57.491Z,13.80
2022-10-31T10:02:38.631Z,12.90
2022-10-31T10:05:10.993Z,14.50
2022-10-31T10:08:02.672Z,13.40
2022-10-31T10:10:56.125Z,13.00
2022-10-31T10:13:45.560Z,17.20
2022-10-31T10:16:16.019Z,14.00
2022-10-31T10:18:47.910Z,15.70
2022-10-31T10:21:34.785Z,12.40
2022-10-31T10:24:18.186Z,14.90
2022-10-31T10:27:09.981Z,12.10
2022-10-31T10:30:11.456Z,19.10
2022-10-31T10:32:52.759Z,12.40
2022-10-31T10:35:23.109Z,15.30
2022-10-31T10:37:54.165Z,14.80
2022-10-31T10:40:25.879Z,15.40
2022-10-31T10:43:32.136Z,15.30
2022-10-31T10:46:34.633Z,15.60
2022-10-31T10:49:12.674Z,17.40
2022-10-31T10:52:07.547Z,16.00
2022-10-31T10:55:10.587Z,15.90
2022-10-31T10:57:59.328Z,15.20
2022-10-31T11:00:32.053Z,15.10
2022-10-31T11:03:00.570Z,15.70
2022-10-31T11:05:37.212Z,16.30
2022-10-31T11:08:06.062Z,15.70
2022-10-31T11:10:34.370Z,15.40
2022-10-31T11:13:24.287Z,17.20
2022-10-31T11:15:54.974Z,20.00
2022-10-31T11:18:26.307Z,20.00
2022-10-31T11:20:57.016Z,22.00
2022-10-31T11:23:27.279Z,23.20
2022-10-31T11:26:04.137Z,23.60
2022-10-31T11:28:35.613Z,23.20
2022-10-31T11:31:09.790Z,23.20
2022-10-31T11:33:48.215Z,25.00
2022-10-31T11:36:21.765Z,21.50
2022-10-31T11:38:50.314Z,26.80
2022-10-31T11:41:25.621Z,27.50
2022-10-31T11:43:57.165Z,25.00
2022-10-31T11:46:34.083Z,28.50
2022-10-31T11:49:02.531Z,34.90
2022-10-31T11:51:33.970Z,29.90
2022-10-31T11:54:03.794Z,26.20
2022-10-31T11:56:40.786Z,26.90
2022-10-31T11:59:26.487Z,29.00
2022-10-31T12:01:55.603Z,24.10
2022-10-31T12:04:45.435Z,28.90
2022-10-31T12:07:13.069Z,24.90
2022-10-31T12:09:42.270Z,25.20
2022-10-31T12:12:43.457Z,25.60
2022-10-31T12:15:19.885Z,25.90
2022-10-31T12:18:08.295Z,25.90
2022-10-31T12:20:55.997Z,25.70
2022-10-31T12:23:40.420Z,24.40
2022-10-31T12:26:27.427Z,26.30
2022-10-31T12:29:31.154Z,26.80
2022-10-31T12:32:33.615Z,28.60
2022-10-31T12:35:20.863Z,30.50
2022-10-31T12:38:10.212Z,26.30
2022-10-31T12:40:59.558Z,32.30
2022-10-31T12:43:48.552Z,28.00
2022-10-31T12:46:45.793Z,26.10
2022-10-31T12:49:51.112Z,28.50
2022-10-31T12:52:19.857Z,29.00
2022-10-31T12:55:19.423Z,27.30
2022-10-31T12:57:51.932Z,26.80
2022-10-31T13:00:20.982Z,30.80
2022-10-31T13:03:22.433Z,28.00
2022-10-31T13:05:55.717Z,28.50
2022-10-31T13:08:29.981Z,25.70
2022-10-31T13:11:17.524Z,31.20
2022-10-31T13:13:53.948Z,24.70
2022-10-31T13:16:30.713Z,28.70
2022-10-31T13:19:10.717Z,30.20
2022-10-31T13:22:04.187Z,30.90
2022-10-31T13:24:37.671Z,25.70
2022-10-31T13:27:20.341Z,27.20
2022-10-31T13:30:24.055Z,32.50
2022-10-31T13:32:55.313Z,27.80
2022-10-31T13:35:44.548Z,27.20
2022-10-31T13:38:39.923Z,24.90
2022-10-31T13:41:28.755Z,26.30
2022-10-31T13:44:18.219Z,25.70
2022-10-31T13:46:46.270Z,30.50
2022-10-31T13:49:31.734Z,29.00
2022-10-31T13:52:31.333Z,29.90
2022-10-31T13:54:58.886Z,28.50
2022-10-31T13:57:45.416Z,28.00
2022-10-31T14:00:29.246Z,33.20
2022-10-31T14:02:58.502Z,31.40
2022-10-31T14:05:27.633Z,30.40
2022-10-31T14:07:57.533Z,29.60
2022-10-31T14:10:39.336Z,30.10
2022-10-31T14:13:15.005Z,23.90
2022-10-31T14:15:53.603Z,35.90
2022-10-31T14:18:26.374Z,35.70
2022-10-31T14:20:53.941Z,40.80
2022-10-31T14:23:41.286Z,36.30
2022-10-31T14:26:29.228Z,40.20
2022-10-31T14:28:59.307Z,36.30
2022-10-31T14:31:39.086Z,55.80
2022-10-31T14:34:32.160Z,23.10
2022-10-31T14:37:25.214Z,32.50
2022-10-31T14:40:12.592Z,33.70
2022-10-31T14:42:53.114Z,23.00
2022-10-31T14:45:43.392Z,22.70
2022-10-31T14:48:46.018Z,44.40
2022-10-31T14:51:19.211Z,34.30
2022-10-31T14:53:51.285Z,29.10
2022-10-31T14:56:32.148Z,27.50
2022-10-31T14:59:05.328Z,32.20
2022-10-31T15:01:39.381Z,26.40
2022-10-31T15:04:23.193Z,29.30
2022-10-31T15:07:09.134Z,26.30
2022-10-31T15:09:38.677Z,25.50
2022-10-31T15:12:23.545Z,26.00
2022-10-31T15:14:52.555Z,29.90
2022-10-31T15:17:21.761Z,28.80
2022-10-31T15:19:49.267Z,26.60
2022-10-31T15:22:19.642Z,35.30
2022-10-31T15:24:47.385Z,58.20
2022-10-31T15:27:17.506Z,55.30
2022-10-31T15:29:50.705Z,47.60
2022-10-31T15:32:27.264Z,40.20
2022-10-31T15:34:59.164Z,40.90
2022-10-31T15:37:27.725Z,23.80
2022-10-31T15:39:55.191Z,26.20
2022-10-31T15:42:30.407Z,22.60
2022-10-31T15:45:06.261Z,23.70
2022-10-31T15:47:34.456Z,39.80
2022-10-31T15:50:04.007Z,27.60
2022-10-31T15:52:49.260Z,26.80
2022-10-31T15:55:21.803Z,71.70
2022-10-31T15:57:56.871Z,50.70
2022-10-31T16:00:33.574Z,29.00
2022-10-31T16:03:19.783Z,61.50
2022-10-31T16:05:52.171Z,40.00
2022-10-31T16:08:29.836Z,24.70
2022-10-31T16:11:19.507Z,24.70
2022-10-31T16:13:54.404Z,25.60
2022-10-31T16:16:38.412Z,25.60
2022-10-31T16:19:19.450Z,23.90
2022-10-31T16:21:50.067Z,23.40
2022-10-31T16:24:20.739Z,69.00
2022-10-31T16:26:54.401Z,63.20
2022-10-31T16:29:44.746Z,33.10
2022-10-31T16:32:35.966Z,66.40
2022-10-31T16:35:09.509Z,85.70
2022-10-31T16:37:41.168Z,44.50
2022-10-31T16:40:14.290Z,45.50
2022-10-31T16:42:44.331Z,35.50
2022-10-31T16:45:29.832Z,36.30
2022-10-31T16:48:17.707Z,36.10
2022-10-31T16:50:45.324Z,31.60
2022-10-31T16:53:16.510Z,41.00
2022-10-31T16:55:47.197Z,45.40
2022-10-31T16:58:18.860Z,47.80
2022-10-31T17:00:46.898Z,43.50
2022-10-31T17:03:14.939Z,45.80
2022-10-31T17:05:42.422Z,59.30
2022-10-31T17:08:09.969Z,52.20
2022-10-31T17:10:38.906Z,31.80
2022-10-31T17:13:11.615Z,24.60
2022-10-31T17:15:46.409Z,24.90
2022-10-31T17:18:16.229Z,23.10
2022-10-31T17:20:45.036Z,27.80
2022-10-31T17:23:15.123Z,20.60
2022-10-31T17:25:44.042Z,21.50
2022-10-31T17:28:13.956Z,21.30
2022-10-31T17:30:42.955Z,20.00
2022-10-31T17:33:15.188Z,19.30
2022-10-31T17:35:44.830Z,17.90
2022-10-31T17:38:12.702Z,16.50
2022-10-31T17:40:42.245Z,17.60
2022-10-31T17:43:10.886Z,21.90
2022-10-31T17:45:40.830Z,20.30
2022-10-31T17:48:12.235Z,19.60
2022-10-31T17:50:40.191Z,18.10
2022-10-31T17:53:07.668Z,17.80
2022-10-31T17:55:37.341Z,16.80
2022-10-31T17:58:05.931Z,16.80
2022-10-31T18:00:34.227Z,17.10
2022-10-31T18:03:03.762Z,16.40
2022-10-31T18:05:31.908Z,20.60
2022-10-31T18:08:03.723Z,26.10
2022-10-31T18:10:32.264Z,24.40
2022-10-31T18:13:00.143Z,18.20
2022-10-31T18:15:28.450Z,16.80
2022-10-31T18:17:55.943Z,19.20
2022-10-31T18:20:23.416Z,17.40
2022-10-31T18:22:50.913Z,19.60
2022-10-31T18:25:18.357Z,19.40
2022-10-31T18:27:45.893Z,20.90
2022-10-31T18:30:13.458Z,20.50
2022-10-31T18:32:41.098Z,38.10
2022-10-31T18:35:08.609Z,29.90
2022-10-31T18:37:36.393Z,33.10
2022-10-31T18:40:04.233Z,19.90
2022-10-31T18:42:31.730Z,20.30
2022-10-31T18:45:06.691Z,42.30
2022-10-31T18:47:44.625Z,20.60
2022-10-31T18:50:12.415Z,38.90
2022-10-31T18:52:40.186Z,37.00
2022-10-31T18:55:08.236Z,35.70
2022-10-31T18:57:36.205Z,26.00
2022-10-31T19:00:05.815Z,22.50
2022-10-31T19:02:33.340Z,41.50
2022-10-31T19:05:00.835Z,30.20
2022-10-31T19:07:28.355Z,20.80
2022-10-31T19:09:55.800Z,17.60
2022-10-31T19:12:23.409Z,19.00
2022-10-31T19:14:50.900Z,27.70
2022-10-31T19:17:18.934Z,74.80
2022-10-31T19:19:46.430Z,36.30
2022-10-31T19:22:13.896Z,15.50
2022-10-31T19:24:41.456Z,19.00
2022-10-31T19:27:12.106Z,36.20
2022-10-31T19:29:42.037Z,26.00
2022-10-31T19:32:09.554Z,20.40
2022-10-31T19:34:37.075Z,31.10
2022-10-31T19:37:04.651Z,32.10
2022-10-31T19:39:32.148Z,30.00
2022-10-31T19:41:59.753Z,34.20
2022-10-31T19:44:30.597Z,21.30
2022-10-31T19:46:58.080Z,19.00
2022-10-31T19:49:25.857Z,25.10
2022-10-31T19:51:53.957Z,17.10
2022-10-31T19:54:21.632Z,16.00
2022-10-31T19:56:49.453Z,21.10
2022-10-31T19:59:17.037Z,26.20
2022-10-31T20:01:44.793Z,21.40
2022-10-31T20:04:12.513Z,29.10
2022-10-31T20:06:41.455Z,19.90
2022-10-31T20:09:13.907Z,54.90
2022-10-31T20:11:44.232Z,21.70
2022-10-31T20:14:17.507Z,29.50
2022-10-31T20:16:45.543Z,31.80
2022-10-31T20:19:13.104Z,40.80
2022-10-31T20:21:41.709Z,31.80
2022-10-31T20:24:11.292Z,21.10
2022-10-31T20:26:40.687Z,20.80
2022-10-31T20:29:13.227Z,18.00
2022-10-31T20:31:40.820Z,14.00
2022-10-31T20:34:08.423Z,13.40
2022-10-31T20:36:36.767Z,28.20
2022-10-31T20:39:04.981Z,38.70
2022-10-31T20:41:32.634Z,21.40
2022-10-31T20:44:01.340Z,19.10
2022-10-31T20:46:29.205Z,15.50
2022-10-31T20:48:56.774Z,24.40
2022-10-31T20:51:31.950Z,23.30
2022-10-31T20:54:00.633Z,21.40
2022-10-31T20:56:29.017Z,24.10
2022-10-31T20:58:57.798Z,18.30
2022-10-31T21:01:28.795Z,16.80
2022-10-31T21:03:56.875Z,19.60
2022-10-31T21:06:24.433Z,15.40
2022-10-31T21:08:52.395Z,15.40
2022-10-31T21:11:23.199Z,17.40
2022-10-31T21:13:51.682Z,18.00
2022-10-31T21:16:25.509Z,15.50
2022-10-31T21:18:54.287Z,18.80
2022-10-31T21:21:32.207Z,19.10
2022-10-31T21:24:07.113Z,16.50
2022-10-31T21:26:38.701Z,18.90
2022-10-31T21:29:07.129Z,18.50
2022-10-31T21:31:36.919Z,18.50
2022-10-31T21:34:04.604Z,20.90
2022-10-31T21:36:32.831Z,19.20
2022-10-31T21:39:00.760Z,16.70
2022-10-31T21:41:28.612Z,17.10
2022-10-31T21:43:57.104Z,21.90
2022-10-31T21:46:27.591Z,15.80
2022-10-31T21:48:56.419Z,15.30
2022-10-31T21:51:29.005Z,15.70
2022-10-31T21:54:14.363Z,15.90
2022-10-31T21:56:42.613Z,17.50
2022-10-31T21:59:10.797Z,18.50
2022-10-31T22:01:39.373Z,14.60
2022-10-31T22:04:07.061Z,15.40
2022-10-31T22:06:36.012Z,15.90
2022-10-31T22:09:06.444Z,16.90
2022-10-31T22:11:34.431Z,16.40
2022-10-31T22:14:02.907Z,25.30
2022-10-31T22:16:30.993Z,16.30
2022-10-31T22:19:00.104Z,17.40
2022-10-31T22:21:28.575Z,19.50
2022-10-31T22:24:01.944Z,23.20
2022-10-31T22:26:33.500Z,16.40
2022-10-31T22:29:03.787Z,15.60
2022-10-31T22:31:32.827Z,13.30
2022-10-31T22:34:00.985Z,16.80
2022-10-31T22:36:30.427Z,13.50
2022-10-31T22:38:58.938Z,12.80
2022-10-31T22:41:29.265Z,12.00
2022-10-31T22:43:57.654Z,11.80
2022-10-31T22:46:27.647Z,12.10
2022-10-31T22:49:01.053Z,11.50
2022-10-31T22:51:37.772Z,17.10
2022-10-31T22:54:09.715Z,13.80
2022-10-31T22:56:38.287Z,12.30
2022-10-31T22:59:06.268Z,12.40
2022-10-31T23:01:34.427Z,12.80
2022-10-31T23:04:02.306Z,12.40
2022-10-31T23:06:31.543Z,12.50
2022-10-31T23:09:07.098Z,12.90
2022-10-31T23:11:38.275Z,11.20
2022-10-31T23:14:16.274Z,12.30
2022-10-31T23:16:47.523Z,12.80
2022-10-31T23:19:18.236Z,14.60
2022-10-31T23:21:55.258Z,17.20
2022-10-31T23:24:38.985Z,16.10
2022-10-31T23:27:13.868Z,12.90
2022-10-31T23:29:43.753Z,12.60
2022-10-31T23:32:27.195Z,15.00
2022-10-31T23:34:57.293Z,13.40
2022-10-31T23:37:29.524Z,14.20
2022-10-31T23:39:57.812Z,13.70
2022-10-31T23:42:26.867Z,15.00
2022-10-31T23:44:55.072Z,13.60
2022-10-31T23:47:23.330Z,12.10
2022-10-31T23:49:51.380Z,14.10
2022-10-31T23:52:19.425Z,13.80
2022-10-31T23:54:47.466Z,13.40
2022-10-31T23:57:16.135Z,12.40
2022-10-31T23:59:44.314Z,12.30
